createdAt,value
2019-04-20T00:00:59.579Z,100339.78
2019-04-20T00:03:36.827Z,100331.76
2019-04-20T00:06:01.339Z,100337.54
2019-04-20T00:08:34.539Z,100331.57
2019-04-20T00:11:08.002Z,100330.45
2019-04-20T00:13:42.653Z,100323.73
2019-04-20T00:16:04.191Z,100323.34
2019-04-20T00:18:41.293Z,100320.52
2019-04-20T00:21:22.689Z,100323.73
2019-04-20T00:23:53.532Z,100321.16
2019-04-20T00:26:59.633Z,100314.65
2019-04-20T00:29:21.576Z,100314.75
2019-04-20T00:31:45.765Z,100315.37
2019-04-20T00:34:13.867Z,100311.58
2019-04-20T00:36:36.982Z,100312.61
2019-04-20T00:39:09.874Z,100309.58
2019-04-20T00:41:44.124Z,100307.14
2019-04-20T00:44:13.046Z,100308.55
2019-04-20T00:46:53.482Z,100310.92
2019-04-20T00:49:27.606Z,100306.02
2019-04-20T00:52:05.153Z,100302.22
2019-04-20T00:54:15.850Z,100299.56
2019-04-20T00:56:47.852Z,100309.71
2019-04-20T00:59:27.585Z,100296.39
2019-04-20T01:02:04.582Z,100296.98
2019-04-20T01:04:38.784Z,100298.55
2019-04-20T01:07:06.216Z,100302.28
2019-04-20T01:09:24.611Z,100300.71
2019-04-20T01:11:54.454Z,100304.09
2019-04-20T01:14:36.078Z,100303.00
2019-04-20T01:17:02.144Z,100300.77
2019-04-20T01:19:26.118Z,100298.43
2019-04-20T01:22:01.609Z,100301.70
2019-04-20T01:24:31.348Z,100301.20
2019-04-20T01:27:00.777Z,100300.98
2019-04-20T01:29:36.896Z,100298.89
2019-04-20T01:32:12.527Z,100302.47
2019-04-20T01:34:41.743Z,100309.16
2019-04-20T01:37:17.922Z,100306.33
2019-04-20T01:39:37.165Z,100306.21
2019-04-20T01:42:04.476Z,100309.16
2019-04-20T01:44:41.271Z,100309.66
2019-04-20T01:47:08.008Z,100311.06
2019-04-20T01:49:38.435Z,100306.66
2019-04-20T01:52:16.099Z,100310.84
2019-04-20T01:54:56.439Z,100311.58
2019-04-20T01:57:21.382Z,100312.44
2019-04-20T01:59:55.256Z,100312.91
2019-04-20T02:02:23.269Z,100311.94
2019-04-20T02:05:04.869Z,100315.28
2019-04-20T02:07:35.096Z,100309.11
2019-04-20T02:10:03.073Z,100310.70
2019-04-20T02:12:33.829Z,100309.22
2019-04-20T02:15:03.983Z,100315.64
2019-04-20T02:17:39.291Z,100322.52
2019-04-20T02:20:22.784Z,100317.08
2019-04-20T02:22:48.697Z,100316.06
2019-04-20T02:25:05.834Z,100318.16
2019-04-20T02:27:43.301Z,100326.09
2019-04-20T02:30:39.057Z,100321.36
2019-04-20T02:33:37.557Z,100318.66
2019-04-20T02:35:48.014Z,100322.30
2019-04-20T02:38:58.428Z,100328.97
2019-04-20T02:40:51.091Z,100325.22
2019-04-20T02:45:44.201Z,100323.48
2019-04-20T02:48:21.707Z,100333.83
2019-04-20T02:50:50.023Z,100322.95
2019-04-20T02:53:32.982Z,100325.75
2019-04-20T02:55:58.534Z,100325.13
2019-04-20T02:58:23.873Z,100326.48
2019-04-20T03:00:49.643Z,100324.91
2019-04-20T03:03:08.988Z,100323.17
2019-04-20T03:05:36.773Z,100326.13
2019-04-20T03:08:13.662Z,100325.40
2019-04-20T03:10:54.994Z,100324.04
2019-04-20T03:13:19.769Z,100324.77
2019-04-20T03:15:48.175Z,100325.51
2019-04-20T03:18:22.307Z,100326.10
2019-04-20T03:20:52.789Z,100322.89
2019-04-20T03:23:30.081Z,100319.69
2019-04-20T03:26:05.389Z,100325.53
2019-04-20T03:28:50.569Z,100317.27
2019-04-20T03:31:56.236Z,100317.03
2019-04-20T03:34:47.463Z,100323.83
2019-04-20T03:36:41.530Z,100322.73
2019-04-20T03:39:09.692Z,100321.63
2019-04-20T03:41:27.307Z,100324.02
2019-04-20T03:43:50.123Z,100326.77
2019-04-20T03:46:30.083Z,100329.99
2019-04-20T03:49:04.505Z,100332.00
2019-04-20T03:51:48.942Z,100333.59
2019-04-20T03:54:22.242Z,100328.56
2019-04-20T03:57:13.146Z,100328.94
2019-04-20T03:59:57.672Z,100330.42
2019-04-20T04:02:49.412Z,100333.73
2019-04-20T04:05:17.681Z,100337.07
2019-04-20T04:07:41.535Z,100332.64
2019-04-20T04:10:22.784Z,100328.94
2019-04-20T04:13:09.887Z,100326.84
2019-04-20T04:15:44.243Z,100328.45
2019-04-20T04:18:19.704Z,100327.97
2019-04-20T04:20:49.718Z,100329.69
2019-04-20T04:23:32.315Z,100332.29
2019-04-20T04:26:05.994Z,100328.09
2019-04-20T04:28:35.106Z,100325.37
2019-04-20T04:31:07.864Z,100327.73
2019-04-20T04:36:04.640Z,100334.53
2019-04-20T04:38:44.681Z,100332.56
2019-04-20T04:43:41.315Z,100333.81
2019-04-20T04:45:55.400Z,100337.64
2019-04-20T04:48:31.011Z,100335.05
2019-04-20T04:51:02.717Z,100339.61
2019-04-20T04:53:40.740Z,100342.46
2019-04-20T04:56:04.895Z,100345.91
2019-04-20T04:58:29.840Z,100342.58
2019-04-20T05:01:05.708Z,100346.52
2019-04-20T05:03:44.857Z,100346.14
2019-04-20T05:06:25.338Z,100351.20
2019-04-20T05:08:44.009Z,100356.38
2019-04-20T05:11:08.994Z,100353.91
2019-04-20T05:13:45.909Z,100359.10
2019-04-20T05:16:26.070Z,100356.99
2019-04-20T05:19:05.109Z,100359.93
2019-04-20T05:21:31.334Z,100362.28
2019-04-20T05:24:04.791Z,100360.91
2019-04-20T05:26:42.420Z,100362.42
2019-04-20T05:29:01.153Z,100364.77
2019-04-20T05:31:32.774Z,100373.14
2019-04-20T05:36:46.454Z,100371.77
2019-04-20T05:39:22.026Z,100372.02
2019-04-20T05:41:48.191Z,100377.81
2019-04-20T05:44:16.963Z,100370.75
2019-04-20T05:46:56.654Z,100375.91
2019-04-20T05:49:28.712Z,100385.93
2019-04-20T05:52:24.043Z,100383.68
2019-04-20T05:54:26.809Z,100383.79
2019-04-20T05:56:56.460Z,100389.09
2019-04-20T05:59:28.352Z,100385.13
2019-04-20T06:02:07.526Z,100390.54
2019-04-20T06:04:31.449Z,100392.75
2019-04-20T06:06:59.713Z,100390.38
2019-04-20T06:09:34.218Z,100393.42
2019-04-20T06:14:25.792Z,100388.58
2019-04-20T06:17:11.354Z,100394.86
2019-04-20T06:19:53.144Z,100396.05
2019-04-20T06:22:23.098Z,100392.31
2019-04-20T06:24:52.791Z,100392.03
2019-04-20T06:27:14.574Z,100392.20
2019-04-20T06:29:49.780Z,100390.45
2019-04-20T06:32:20.316Z,100402.31
2019-04-20T06:34:42.599Z,100403.84
2019-04-20T06:37:21.306Z,100402.39
2019-04-20T06:39:54.840Z,100399.89
2019-04-20T06:42:22.874Z,100406.30
2019-04-20T06:44:50.510Z,100402.17
2019-04-20T06:47:27.264Z,100399.30
2019-04-20T06:49:51.612Z,100400.47
2019-04-20T06:52:27.367Z,100399.03
2019-04-20T06:55:30.570Z,100397.32
2019-04-20T06:57:45.343Z,100404.89
2019-04-20T07:00:15.365Z,100397.03
2019-04-20T07:12:45.358Z,100404.46
2019-04-20T07:15:21.349Z,100406.24
2019-04-20T07:17:57.618Z,100404.08
2019-04-20T07:20:42.591Z,100403.45
2019-04-20T07:23:18.177Z,100409.13
2019-04-20T07:25:37.490Z,100402.98
2019-04-20T07:28:09.801Z,100410.55
2019-04-20T07:30:35.524Z,100400.17
2019-04-20T07:33:19.454Z,100404.17
2019-04-20T07:35:46.095Z,100407.42
2019-04-20T07:38:23.432Z,100406.74
2019-04-20T07:40:40.145Z,100405.25
2019-04-20T07:43:07.976Z,100394.97
2019-04-20T07:45:37.225Z,100403.52
2019-04-20T07:48:16.714Z,100398.68
2019-04-20T07:50:37.554Z,100397.86
2019-04-20T07:53:15.944Z,100391.93
2019-04-20T07:55:50.794Z,100393.42
2019-04-20T07:58:09.774Z,100390.07
2019-04-20T08:00:55.133Z,100381.08
2019-04-20T08:03:29.576Z,100367.91
2019-04-20T08:05:49.863Z,100368.50
2019-04-20T08:08:30.455Z,100366.19
2019-04-20T08:10:53.853Z,100356.53
2019-04-20T08:16:14.277Z,100350.34
2019-04-20T08:21:06.372Z,100343.99
2019-04-20T08:23:33.698Z,100350.02
2019-04-20T08:25:58.398Z,100350.50
2019-04-20T08:28:33.969Z,100352.32
2019-04-20T08:31:09.386Z,100351.78
2019-04-20T08:34:04.470Z,100354.06
2019-04-20T08:36:25.759Z,100353.77
2019-04-20T08:41:23.456Z,100350.11
2019-04-20T08:46:25.123Z,100349.92
2019-04-20T08:48:56.507Z,100351.20
2019-04-20T08:51:25.513Z,100347.11
2019-04-20T08:53:59.984Z,100344.10
2019-04-20T08:56:21.906Z,100344.27
2019-04-20T08:58:41.456Z,100346.42
2019-04-20T09:01:18.414Z,100344.25
2019-04-20T09:03:51.209Z,100341.67
2019-04-20T09:06:31.246Z,100341.50
2019-04-20T09:08:55.518Z,100338.43
2019-04-20T09:11:31.196Z,100337.48
2019-04-20T09:13:50.316Z,100330.94
2019-04-20T09:16:21.448Z,100326.91
2019-04-20T09:18:56.903Z,100325.84
2019-04-20T09:21:29.696Z,100324.95
2019-04-20T09:24:14.568Z,100331.70
2019-04-20T09:26:43.356Z,100324.47
2019-04-20T09:29:09.509Z,100318.26
2019-04-20T09:31:40.838Z,100318.80
2019-04-20T09:34:20.540Z,100319.14
2019-04-20T09:37:09.592Z,100314.52
2019-04-20T09:39:44.989Z,100318.78
2019-04-20T09:42:12.021Z,100322.75
2019-04-20T09:44:46.026Z,100325.23
2019-04-20T09:47:13.977Z,100312.24
2019-04-20T09:49:55.461Z,100319.83
2019-04-20T09:52:29.119Z,100315.08
2019-04-20T09:55:02.753Z,100313.52
2019-04-20T09:57:33.539Z,100316.39
2019-04-20T10:00:07.238Z,100310.34
2019-04-20T10:02:24.893Z,100307.75
2019-04-20T10:04:51.452Z,100307.33
2019-04-20T10:07:24.265Z,100302.42
2019-04-20T10:09:52.195Z,100297.73
2019-04-20T10:12:22.007Z,100298.88
2019-04-20T10:14:51.490Z,100296.94
2019-04-20T10:17:20.865Z,100290.73
2019-04-20T10:19:51.312Z,100290.02
2019-04-20T10:22:20.814Z,100288.69
2019-04-20T10:24:52.139Z,100285.83
2019-04-20T10:27:21.720Z,100281.08
2019-04-20T10:29:51.470Z,100280.04
2019-04-20T10:32:25.101Z,100282.50
2019-04-20T10:34:52.718Z,100281.46
2019-04-20T10:37:23.996Z,100282.86
2019-04-20T10:39:54.301Z,100269.59
2019-04-20T10:42:23.974Z,100268.80
2019-04-20T10:44:55.857Z,100262.36
2019-04-20T10:47:25.256Z,100274.23
2019-04-20T10:49:56.340Z,100257.99
2019-04-20T10:52:25.678Z,100267.36
2019-04-20T10:54:56.538Z,100269.64
2019-04-20T10:57:26.084Z,100255.30
2019-04-20T10:59:55.524Z,100255.61
2019-04-20T11:02:25.884Z,100251.36
2019-04-20T11:04:56.883Z,100257.55
2019-04-20T11:07:28.259Z,100255.33
2019-04-20T11:10:09.121Z,100244.31
2019-04-20T11:12:28.466Z,100253.06
2019-04-20T11:14:58.689Z,100251.34
2019-04-20T11:17:29.962Z,100254.42
2019-04-20T11:19:59.194Z,100246.47
2019-04-20T11:22:28.743Z,100239.41
2019-04-20T11:24:58.577Z,100239.97
2019-04-20T11:27:28.164Z,100239.12
2019-04-20T11:29:58.233Z,100233.14
2019-04-20T11:32:28.352Z,100242.43
2019-04-20T11:35:01.036Z,100232.55
2019-04-20T11:37:29.106Z,100219.88
2019-04-20T11:39:59.036Z,100216.87
2019-04-20T11:42:29.888Z,100220.55
2019-04-20T11:45:00.440Z,100216.58
2019-04-20T11:47:31.462Z,100226.61
2019-04-20T11:50:01.743Z,100220.84
2019-04-20T11:52:33.261Z,100216.06
2019-04-20T11:55:02.436Z,100210.66
2019-04-20T11:57:33.368Z,100213.73
2019-04-20T12:00:03.645Z,100213.34
2019-04-20T12:02:47.798Z,100211.63
2019-04-20T12:05:28.125Z,100211.88
2019-04-20T12:08:05.120Z,100202.09
2019-04-20T12:10:35.023Z,100205.27
2019-04-20T12:13:05.854Z,100209.03
2019-04-20T12:15:38.621Z,100204.01
2019-04-20T12:18:07.576Z,100199.58
2019-04-20T12:20:36.993Z,100195.05
2019-04-20T12:23:08.556Z,100206.83
2019-04-20T12:25:40.883Z,100196.84
2019-04-20T12:28:09.565Z,100193.70
2019-04-20T12:30:39.737Z,100195.89
2019-04-20T12:33:09.526Z,100180.84
2019-04-20T12:35:40.266Z,100182.77
2019-04-20T12:38:10.376Z,100197.90
2019-04-20T12:40:42.010Z,100189.17
2019-04-20T12:43:13.278Z,100181.70
2019-04-20T12:45:44.159Z,100187.81
2019-04-20T12:48:13.492Z,100185.06
2019-04-20T12:50:43.827Z,100180.53
2019-04-20T12:53:14.736Z,100170.98
2019-04-20T12:55:44.368Z,100182.73
2019-04-20T12:58:14.581Z,100175.56
2019-04-20T13:00:50.174Z,100169.30
2019-04-20T13:03:19.647Z,100163.43
2019-04-20T13:05:51.905Z,100164.00
2019-04-20T13:08:28.562Z,100161.28
2019-04-20T13:11:04.639Z,100155.25
2019-04-20T13:13:36.539Z,100155.07
2019-04-20T13:16:18.422Z,100157.70
2019-04-20T13:18:55.382Z,100147.16
2019-04-20T13:21:25.091Z,100140.39
2019-04-20T13:23:55.284Z,100139.89
2019-04-20T13:26:27.044Z,100134.26
2019-04-20T13:28:59.177Z,100130.23
2019-04-20T13:31:33.772Z,100121.17
2019-04-20T13:34:03.668Z,100129.30
2019-04-20T13:36:36.059Z,100118.91
2019-04-20T13:39:08.230Z,100119.64
2019-04-20T13:41:38.124Z,100108.49
2019-04-20T13:44:08.356Z,100104.92
2019-04-20T13:46:38.958Z,100101.16
2019-04-20T13:49:09.312Z,100098.47
2019-04-20T13:51:39.158Z,100098.90
2019-04-20T13:54:15.085Z,100086.56
2019-04-20T13:56:43.822Z,100101.20
2019-04-20T13:59:30.031Z,100102.98
2019-04-20T14:02:13.049Z,100094.50
2019-04-20T14:04:46.441Z,100089.52
2019-04-20T14:07:19.066Z,100090.86
2019-04-20T14:09:49.118Z,100086.84
2019-04-20T14:12:25.114Z,100079.42
2019-04-20T14:14:48.962Z,100085.16
2019-04-20T14:17:19.183Z,100084.45
2019-04-20T14:19:49.408Z,100081.19
2019-04-20T14:22:20.825Z,100081.19
2019-04-20T14:24:51.073Z,100075.66
2019-04-20T14:27:21.247Z,100078.09
2019-04-20T14:29:51.036Z,100073.03
2019-04-20T14:32:21.166Z,100062.36
2019-04-20T14:34:51.216Z,100064.81
2019-04-20T14:37:22.696Z,100062.51
2019-04-20T14:39:52.408Z,100064.69
2019-04-20T14:42:30.426Z,100056.63
2019-04-20T14:44:52.260Z,100053.61
2019-04-20T14:47:21.769Z,100048.70
2019-04-20T14:49:51.134Z,100044.41
2019-04-20T14:52:21.674Z,100049.25
2019-04-20T14:54:51.233Z,100046.64
2019-04-20T14:57:23.428Z,100036.52
2019-04-20T14:59:55.895Z,100036.73
2019-04-20T15:02:30.164Z,100029.17
2019-04-20T15:05:01.286Z,100023.17
2019-04-20T15:07:30.931Z,100023.24
2019-04-20T15:10:00.771Z,100017.92
2019-04-20T15:12:43.273Z,100008.34
2019-04-20T15:15:02.990Z,100010.77
2019-04-20T15:17:39.986Z,100013.20
2019-04-20T15:20:19.635Z,100000.29
2019-04-20T15:22:51.658Z,100014.77
2019-04-20T15:25:21.404Z,100011.94
2019-04-20T15:27:52.612Z,100006.47
2019-04-20T15:30:22.373Z,100008.00
2019-04-20T15:32:52.519Z,100006.83
2019-04-20T15:35:26.327Z,99999.59
2019-04-20T15:37:55.772Z,99999.72
2019-04-20T15:40:41.359Z,100001.91
2019-04-20T15:43:15.858Z,99996.41
2019-04-20T15:45:41.424Z,99989.92
2019-04-20T15:48:12.063Z,99985.27
2019-04-20T15:50:41.705Z,99986.68
2019-04-20T15:53:11.398Z,99985.57
2019-04-20T15:55:43.445Z,99989.04
2019-04-20T15:58:14.317Z,99992.16
2019-04-20T16:00:44.706Z,99993.84
2019-04-20T16:03:25.561Z,99989.34
2019-04-20T16:05:56.913Z,99984.34
2019-04-20T16:08:36.708Z,99984.92
2019-04-20T16:11:07.003Z,99981.54
2019-04-20T16:13:43.988Z,99983.22
2019-04-20T16:16:12.170Z,99986.27
2019-04-20T16:18:43.072Z,99980.54
2019-04-20T16:21:19.626Z,99973.16
2019-04-20T16:23:48.677Z,99979.19
2019-04-20T16:26:21.788Z,99976.81
2019-04-20T16:28:51.229Z,99979.16
2019-04-20T16:31:20.776Z,99969.41
2019-04-20T16:33:50.885Z,99980.38
2019-04-20T16:36:22.728Z,99972.30
2019-04-20T16:38:53.415Z,99972.04
2019-04-20T16:41:24.318Z,99969.89
2019-04-20T16:43:55.376Z,99962.13
2019-04-20T16:46:25.822Z,99968.34
2019-04-20T16:48:55.354Z,99969.55
2019-04-20T16:51:25.139Z,99967.05
2019-04-20T16:53:56.145Z,99964.16
2019-04-20T16:56:26.554Z,99959.55
2019-04-20T16:59:01.517Z,99954.64
2019-04-20T17:01:29.676Z,99958.41
2019-04-20T17:04:06.779Z,99956.25
2019-04-20T17:06:31.989Z,99959.30
2019-04-20T17:09:03.304Z,99957.17
2019-04-20T17:11:33.975Z,99957.66
2019-04-20T17:14:06.779Z,99953.86
2019-04-20T17:16:37.554Z,99957.58
2019-04-20T17:19:07.822Z,99953.08
2019-04-20T17:21:40.149Z,99954.05
2019-04-20T17:24:11.164Z,99949.53
2019-04-20T17:26:45.207Z,99948.00
2019-04-20T17:29:22.139Z,99951.01
2019-04-20T17:32:05.615Z,99953.87
2019-04-20T17:34:51.618Z,99949.48
2019-04-20T17:37:06.721Z,99961.14
2019-04-20T17:39:55.459Z,99954.25
2019-04-20T17:42:25.027Z,99952.66
2019-04-20T17:44:51.817Z,99950.76
2019-04-20T17:47:30.340Z,99951.93
2019-04-20T17:50:00.701Z,99953.30
2019-04-20T17:52:36.592Z,99958.08
2019-04-20T17:54:47.424Z,99956.98
2019-04-20T17:57:17.231Z,99962.05
2019-04-20T17:59:53.254Z,99964.23
2019-04-20T18:03:00.606Z,99962.95
2019-04-20T18:05:35.131Z,99957.91
2019-04-20T18:08:10.373Z,99959.94
2019-04-20T18:10:36.753Z,99955.56
2019-04-20T18:12:51.970Z,99956.88
2019-04-20T18:15:42.340Z,99958.82
2019-04-20T18:18:17.302Z,99961.49
2019-04-20T18:20:28.044Z,99961.50
2019-04-20T18:22:58.792Z,99959.42
2019-04-20T18:25:56.191Z,99963.36
2019-04-20T18:28:15.218Z,99967.59
2019-04-20T18:30:48.008Z,99974.72
2019-04-20T18:33:09.597Z,99966.95
2019-04-20T18:35:43.410Z,99970.52
2019-04-20T18:38:14.621Z,99981.88
2019-04-20T18:40:51.462Z,99975.39
2019-04-20T18:43:18.267Z,99976.19
2019-04-20T18:46:04.158Z,99979.17
2019-04-20T18:48:40.491Z,99984.25
2019-04-20T18:50:52.049Z,99990.19
2019-04-20T18:53:31.772Z,99986.26
2019-04-20T18:55:59.064Z,99986.88
2019-04-20T18:58:27.069Z,99986.95
2019-04-20T19:00:57.198Z,99994.76
2019-04-20T19:03:32.709Z,99994.63
2019-04-20T19:05:57.982Z,100000.35
2019-04-20T19:08:35.234Z,99999.17
2019-04-20T19:11:04.110Z,100001.81
2019-04-20T19:13:49.228Z,100003.08
2019-04-20T19:16:34.452Z,100003.13
2019-04-20T19:19:12.523Z,100009.94
2019-04-20T19:21:35.260Z,100000.23
2019-04-20T19:24:10.966Z,100003.86
2019-04-20T19:26:38.412Z,100005.27
2019-04-20T19:29:16.077Z,100006.00
2019-04-20T19:31:56.902Z,100009.83
2019-04-20T19:34:31.509Z,100006.94
2019-04-20T19:37:00.106Z,100012.31
2019-04-20T19:39:30.324Z,100009.09
2019-04-20T19:41:55.961Z,100018.36
2019-04-20T19:44:32.871Z,100015.81
2019-04-20T19:47:10.625Z,100018.06
2019-04-20T19:49:36.161Z,100015.50
2019-04-20T19:52:26.629Z,100020.45
2019-04-20T19:54:46.535Z,100017.19
2019-04-20T19:57:09.492Z,100020.45
2019-04-20T19:59:37.790Z,100021.66
2019-04-20T20:01:58.036Z,100020.94
2019-04-20T20:04:27.469Z,100017.52
2019-04-20T20:07:03.340Z,100016.25
2019-04-20T20:09:28.087Z,100012.45
2019-04-20T20:12:04.877Z,100003.88
2019-04-20T20:14:36.490Z,100014.45
2019-04-20T20:17:25.125Z,100009.81
2019-04-20T20:19:55.968Z,100015.25
2019-04-20T20:22:15.343Z,100007.51
2019-04-20T20:24:33.377Z,100015.61
2019-04-20T20:27:07.654Z,100016.23
2019-04-20T20:29:41.054Z,100014.51
2019-04-20T20:32:17.855Z,100017.02
2019-04-20T20:34:42.133Z,100010.69
2019-04-20T20:37:12.553Z,100012.52
2019-04-20T20:39:40.886Z,100018.33
2019-04-20T20:42:25.257Z,100017.94
2019-04-20T20:44:51.796Z,100018.94
2019-04-20T20:47:40.016Z,100013.59
2019-04-20T20:50:08.297Z,100020.91
2019-04-20T20:52:32.414Z,100022.53
2019-04-20T20:54:56.350Z,100020.80
2019-04-20T20:57:22.391Z,100021.26
2019-04-20T20:59:55.312Z,100014.55
2019-04-20T21:02:28.148Z,100009.55
2019-04-20T21:04:51.505Z,100013.44
2019-04-20T21:07:20.687Z,100011.67
2019-04-20T21:09:50.390Z,100006.33
2019-04-20T21:12:21.728Z,100006.62
2019-04-20T21:14:51.044Z,100002.98
2019-04-20T21:17:25.237Z,99998.00
2019-04-20T21:20:07.337Z,100003.09
2019-04-20T21:22:44.631Z,99998.66
2019-04-20T21:24:56.774Z,99996.43
2019-04-20T21:27:27.602Z,99997.46
2019-04-20T21:29:58.718Z,99991.95
2019-04-20T21:32:28.234Z,99993.44
2019-04-20T21:35:02.679Z,99993.36
2019-04-20T21:37:29.013Z,99987.48
2019-04-20T21:40:01.464Z,99992.56
2019-04-20T21:42:34.619Z,99992.36
2019-04-20T21:45:07.012Z,99986.35
2019-04-20T21:47:34.851Z,99989.74
2019-04-20T21:50:17.034Z,99996.67
2019-04-20T21:52:39.373Z,99993.02
2019-04-20T21:55:08.027Z,99987.95
2019-04-20T21:57:44.730Z,99988.77
2019-04-20T22:00:23.789Z,99990.08
2019-04-20T22:02:46.742Z,99985.94
2019-04-20T22:05:15.556Z,99985.87
2019-04-20T22:07:46.418Z,99983.78
2019-04-20T22:10:18.966Z,99982.86
2019-04-20T22:12:53.544Z,99973.23
2019-04-20T22:15:24.916Z,99975.06
2019-04-20T22:17:48.873Z,99975.72
2019-04-20T22:20:28.836Z,99975.66
2019-04-20T22:23:02.682Z,99976.16
2019-04-20T22:25:39.271Z,99975.45
2019-04-20T22:27:51.604Z,99974.95
2019-04-20T22:30:22.062Z,99973.44
2019-04-20T22:32:53.712Z,99974.24
2019-04-20T22:35:24.399Z,99974.52
2019-04-20T22:38:05.221Z,99971.73
2019-04-20T22:40:33.272Z,99973.57
2019-04-20T22:43:02.017Z,99967.01
2019-04-20T22:45:33.974Z,99966.79
2019-04-20T22:48:08.372Z,99967.78
2019-04-20T22:50:51.041Z,99966.08
2019-04-20T22:53:24.186Z,99959.05
2019-04-20T22:56:01.435Z,99958.98
2019-04-20T22:58:23.659Z,99960.44
2019-04-20T23:00:51.461Z,99958.45
2019-04-20T23:03:12.622Z,99956.84
2019-04-20T23:05:42.759Z,99957.13
2019-04-20T23:08:12.971Z,99958.80
2019-04-20T23:10:45.969Z,99959.71
2019-04-20T23:13:13.796Z,99958.78
2019-04-20T23:15:47.661Z,99954.84
2019-04-20T23:18:14.140Z,99952.46
2019-04-20T23:20:44.124Z,99952.31
2019-04-20T23:23:16.978Z,99954.20
2019-04-20T23:25:45.147Z,99951.10
2019-04-20T23:28:17.989Z,99943.23
2019-04-20T23:30:47.343Z,99944.03
2019-04-20T23:33:18.063Z,99951.34
2019-04-20T23:35:52.983Z,99946.05
2019-04-20T23:38:22.549Z,99944.12
2019-04-20T23:40:50.055Z,99937.24
2019-04-20T23:43:30.321Z,99935.09
2019-04-20T23:46:23.974Z,99933.97
2019-04-20T23:48:50.453Z,99935.98
2019-04-20T23:51:40.688Z,99934.17
2019-04-20T23:53:59.622Z,99935.20
2019-04-20T23:56:23.601Z,99934.89
2019-04-20T23:58:56.228Z,99935.98
